Portada
METAR-TAF:

METAR-TAF

Aeroports :

Londrina, Paranà, Brasil

latitud: 23-20S, longitud: 051-08W, altitud: 569 m

Observació

L'informe es va fer fa 13 minuts, a les 19:00 UTC
Vent 5 kt del Sud/Sud-Est
Temperatura 32°C
Humitat 21%
Pressió 1014 hPa
Visibilitat 10 km o més
sense núvols per sota de 1500 mi sense presència de cumulonimbus.

METAR: SBLO 181900Z 16005KT CAVOK 32/07 Q1014

Hora: 17:13 (19:13 UTC)

Pronòstic

L'informe es va fer fa 3 hores i 41 minuts, a les 15:32 UTC
Pronòstic vàlid del 18 a les 18 UTC al 19 a les 06 UTC
Vent 5 kt del Sud-Est
Visibilitat 10 km o més
sense núvols per sota de 1500 mi sense presència de cumulonimbus.

TAF: SBLO 181532Z 1818/1906 13005KT CAVOK TX32/1818Z TN20/1906Z RMK PDW

Observacions i pronòstics meteorològics de més de 4000 aeroports (METAR i TAF).

Les estacions disponibles són els punts grocs i vermells al mapa.

Posi el ratolí al punt desitjat per veure el nom de l'estació.

Feu clic per veure les observacions i els pronòstics meteorològics.

Per canviar el mapa: feu clic els botons verds amb una creu de color negre per apropar; al botó verd amb un guió per allunyar la imatge; o en les fletxes verdes per a mapes adjacents.


METAR-TAF: